Terminal Aerodrome Forecast
Issued by NWS

Home | Current Version | Previous Version | Text Only | Print | Product List | Glossary Off
Versions: 1 2 3 4 5 6 7 8 9 10 11 12 13

000
FTUS43 KBIS 171720
TAFDIK
TAF
KDIK 171720Z 1718/1818 22008KT P6SM FEW250
     FM172000 32007KT P6SM SCT250
     FM172100 34016G25KT P6SM SCT250
     FM172300 32016G25KT P6SM SCT200
     FM180200 31009KT P6SM SCT200
     FM180400 32005KT P6SM FEW200=

USA.gov is the U.S. government's official web portal to all federal, state and local government web resources and services.